Time;durP1;ratioP1;P1;durP2;ratioP2;P2;SDS_P1;SDS_P2;PMS_P1;PMS_P2;Temp;Humidity;BMP_temperature;BMP_pressure;BME280_temperature;BME280_humidity;BME280_pressure;Samples;Min_cycle;Max_cycle;Signal;HPM_P1;HPM_P2
2023/08/01 07:58:25;;;;;;;5.90;5.28;;;;;;;;;;373538;23;20329;-95
2023/08/01 07:59:46;;;;;;;5.45;4.95;;;;;;;;;;2041048;29;20043;-96
2023/08/01 08:01:06;;;;;;;6.05;5.47;;;;;;;;;;2018862;29;20052;-95
2023/08/01 08:02:06;;;;;;;8.30;5.40;;;;;;;;;;2035219;29;20040;-94
2023/08/01 08:03:08;;;;;;;8.25;5.40;;;;;;;;;;2035668;29;20077;-96
2023/08/01 08:04:08;;;;;;;5.65;4.97;;;;;;;;;;2029157;29;20100;-96
2023/08/01 08:05:10;;;;;;;6.10;5.13;;;;;;;;;;2025792;29;20044;-95
2023/08/01 08:06:13;;;;;;;5.45;4.93;;;;;;;;;;2034371;29;20023;-96
2023/08/01 08:07:17;;;;;;;5.28;4.55;;;;;;;;;;2034226;29;20063;-96
2023/08/01 08:08:18;;;;;;;5.80;5.20;;;;;;;;;;2026017;29;20168;-96
2023/08/01 08:09:18;;;;;;;6.03;5.13;;;;;;;;;;2025590;29;20037;-95
2023/08/01 08:10:19;;;;;;;6.55;4.95;;;;;;;;;;2033085;29;20437;-95
2023/08/01 08:11:23;;;;;;;5.57;5.03;;;;;;;;;;2026172;29;20029;-96
2023/08/01 08:12:26;;;;;;;5.03;4.53;;;;;;;;;;2026218;29;20447;-96
2023/08/01 08:13:27;;;;;;;6.40;5.13;;;;;;;;;;2025568;29;20025;-96
2023/08/01 08:14:30;;;;;;;5.45;4.47;;;;;;;;;;2025645;29;20541;-96
2023/08/01 08:15:35;;;;;;;5.35;4.57;;;;;;;;;;2020915;29;20482;-95
2023/08/01 08:16:40;;;;;;;5.28;4.70;;;;;;;;;;2025892;29;20362;-96
2023/08/01 08:18:13;;;;;;;4.90;4.40;;;;;;;;;;2036019;29;20091;-96
2023/08/01 08:19:26;;;;;;;4.20;3.80;;;;;;;;;;2036374;29;20032;-96
2023/08/01 08:20:29;;;;;;;4.57;4.15;;;;;;;;;;2033813;29;20024;-96
2023/08/01 08:27:48;;;;;;;5.38;4.03;;;;;;;;;;2042131;29;20031;-96
2023/08/01 08:28:57;;;;;;;3.72;3.42;;;;;;;;;;2039350;29;20051;-96
2023/08/01 08:30:28;;;;;;;;;;;;;;;;;;;;;
2023/08/01 08:31:38;;;;;;;4.00;3.70;;;;;;;;;;2038772;29;20020;-96
2023/08/01 08:32:45;;;;;;;;;;;;;;;;;;2042465;29;20103;-96
2023/08/01 08:33:57;;;;;;;3.92;3.53;;;;;;;;;;2033851;29;20311;-96
2023/08/01 08:35:11;;;;;;;5.80;3.60;;;;;;;;;;2036314;29;20063;-96
2023/08/01 08:36:33;;;;;;;5.57;3.90;;;;;;;;;;2030955;29;20097;-96
2023/08/01 08:37:45;;;;;;;4.20;3.75;;;;;;;;;;2041077;29;20612;-96
2023/08/01 08:39:14;;;;;;;4.20;3.53;;;;;;;;;;1692574;29;10263730;-96
2023/08/01 08:40:59;;;;;;;5.18;3.60;;;;;;;;;;2009387;29;20045;-96
2023/08/01 08:42:30;;;;;;;;;;;;;;;;;;;;;
2023/08/01 08:49:19;;;;;;;3.95;3.65;;;;;;;;;;2047288;29;20087;-96
2023/08/01 08:50:20;;;;;;;4.38;3.95;;;;;;;;;;2041081;29;20027;-96
2023/08/01 08:51:21;;;;;;;8.55;3.78;;;;;;;;;;2025287;29;20035;-95
2023/08/01 08:52:23;;;;;;;4.50;4.10;;;;;;;;;;2033520;29;20120;-95
2023/08/01 08:53:26;;;;;;;4.18;3.70;;;;;;;;;;2034506;29;20028;-96
2023/08/01 08:54:39;;;;;;;5.20;3.50;;;;;;;;;;2034328;29;20031;-96
2023/08/01 08:55:42;;;;;;;5.00;3.97;;;;;;;;;;2026748;29;20460;-94
2023/08/01 08:56:43;;;;;;;4.10;3.70;;;;;;;;;;2025359;29;20074;-94
2023/08/01 08:58:38;;;;;;;4.75;3.78;;;;;;;;;;2033640;29;20028;-96
2023/08/01 09:00:11;;;;;;;;;;;;;;;;;;;;;
2023/08/01 09:03:00;;;;;;;4.63;3.60;;;;;;;;;;2024803;29;20115;-96
2023/08/01 09:04:49;;;;;;;4.60;4.20;;;;;;;;;;2033765;29;20577;-96
2023/08/01 09:06:08;;;;;;;5.05;3.50;;;;;;;;;;2034496;29;20040;-96
2023/08/01 09:07:39;;;;;;;4.88;3.65;;;;;;;;;;2033763;29;20040;-96
2023/08/01 09:10:44;;;;;;;4.20;3.78;;;;;;;;;;1997433;29;20444;-96
2023/08/01 09:11:52;;;;;;;3.65;3.30;;;;;;;;;;2034865;29;20103;-96
2023/08/01 09:13:13;;;;;;;5.57;4.60;;;;;;;;;;2034863;29;20095;-95
2023/08/01 09:14:13;;;;;;;;;;;;;;;;;;2027822;29;20024;-93
2023/08/01 09:15:39;;;;;;;6.18;4.10;;;;;;;;;;2028160;29;20091;-95
2023/08/01 09:16:47;;;;;;;4.90;4.10;;;;;;;;;;2026016;29;20040;-95
2023/08/01 09:17:51;;;;;;;5.00;4.00;;;;;;;;;;2026315;29;20397;-96
2023/08/01 09:18:58;;;;;;;4.85;4.03;;;;;;;;;;2022733;29;20069;-95
2023/08/01 09:21:02;;;;;;;5.75;3.90;;;;;;;;;;2030035;29;20036;-96
2023/08/01 09:22:13;;;;;;;3.72;3.42;;;;;;;;;;2016603;29;20045;-94
2023/08/01 09:23:14;;;;;;;5.72;4.22;;;;;;;;;;2019554;29;20040;-95
2023/08/01 09:24:19;;;;;;;3.92;3.53;;;;;;;;;;2017496;29;20568;-96
2023/08/01 09:25:41;;;;;;;3.78;3.47;;;;;;;;;;2027114;29;20084;-96
2023/08/01 09:27:04;;;;;;;4.30;3.90;;;;;;;;;;2034240;29;20032;-96
2023/08/01 09:28:41;;;;;;;4.32;3.92;;;;;;;;;;2025521;29;20028;-96
2023/08/01 09:29:55;;;;;;;4.95;3.70;;;;;;;;;;2022300;29;20025;-96
2023/08/01 09:30:58;;;;;;;5.13;3.80;;;;;;;;;;2027384;29;20033;-96
2023/08/01 09:32:05;;;;;;;3.92;3.60;;;;;;;;;;2033315;29;20031;-96
2023/08/01 09:33:41;;;;;;;4.07;3.55;;;;;;;;;;2031771;29;20028;-94
2023/08/01 09:34:46;;;;;;;6.10;4.28;;;;;;;;;;2013052;29;20548;-94
2023/08/01 09:35:54;;;;;;;4.35;3.85;;;;;;;;;;2021762;29;20025;-95
2023/08/01 09:36:59;;;;;;;3.65;3.30;;;;;;;;;;1691103;29;10132404;-94
2023/08/01 09:38:07;;;;;;;4.45;3.20;;;;;;;;;;2025974;29;20055;-95
2023/08/01 09:39:46;;;;;;;;;;;;;;;;;;;;;
2023/08/01 09:40:47;;;;;;;3.33;3.03;;;;;;;;;;2030320;29;20056;-95
2023/08/01 09:42:00;;;;;;;3.17;2.88;;;;;;;;;;2032462;29;20180;-96
2023/08/01 09:43:07;;;;;;;3.55;3.08;;;;;;;;;;2032911;29;20036;-94
2023/08/01 09:44:24;;;;;;;3.60;3.25;;;;;;;;;;2027396;29;20029;-96
2023/08/01 09:45:40;;;;;;;;;;;;;;;;;;;;;
2023/08/01 09:46:44;;;;;;;3.17;2.95;;;;;;;;;;2026268;29;20043;-96
2023/08/01 09:47:45;;;;;;;4.20;2.97;;;;;;;;;;2032893;29;20179;-93
2023/08/01 09:49:28;;;;;;;3.40;3.10;;;;;;;;;;2033594;29;20028;-95
2023/08/01 09:52:02;;;;;;;3.55;3.05;;;;;;;;;;2026120;29;20099;-95
2023/08/01 09:53:13;;;;;;;4.10;3.70;;;;;;;;;;2034768;29;20437;-95
2023/08/01 09:55:47;;;;;;;3.50;3.20;;;;;;;;;;2030357;29;20445;-95
2023/08/01 09:56:54;;;;;;;3.88;3.47;;;;;;;;;;2033798;29;20086;-95
2023/08/01 09:58:19;;;;;;;5.70;3.85;;;;;;;;;;2038012;29;20028;-94
2023/08/01 09:59:43;;;;;;;;;;;;;;;;;;;;;
2023/08/01 10:01:06;;;;;;;3.45;3.15;;;;;;;;;;2041068;29;20489;-96
2023/08/01 10:02:19;;;;;;;5.22;3.28;;;;;;;;;;2039992;29;20043;-96
2023/08/01 10:03:32;;;;;;;3.05;2.75;;;;;;;;;;2034402;29;20449;-96
2023/08/01 10:04:41;;;;;;;3.42;3.08;;;;;;;;;;2041651;29;20024;-95
2023/08/01 10:05:53;;;;;;;;;;;;;;;;;;;;;
2023/08/01 10:07:08;;;;;;;8.00;3.92;;;;;;;;;;2040864;29;20368;-96
2023/08/01 10:08:32;;;;;;;3.30;3.00;;;;;;;;;;2041626;29;20028;-96
2023/08/01 10:09:39;;;;;;;3.85;3.50;;;;;;;;;;2036195;29;20492;-96
2023/08/01 10:10:41;;;;;;;3.88;3.55;;;;;;;;;;2041441;29;20031;-96
2023/08/01 10:12:04;;;;;;;3.97;3.35;;;;;;;;;;2032777;29;20126;-96
2023/08/01 10:13:09;;;;;;;3.70;3.40;;;;;;;;;;2035489;29;20043;-96
2023/08/01 10:14:13;;;;;;;3.95;3.55;;;;;;;;;;2041055;29;20526;-96
2023/08/01 10:15:18;;;;;;;4.03;3.63;;;;;;;;;;2033432;29;20456;-96
2023/08/01 10:16:24;;;;;;;4.95;4.03;;;;;;;;;;2045237;29;20020;-96
2023/08/01 10:17:26;;;;;;;4.70;4.03;;;;;;;;;;2033460;29;20404;-96
2023/08/01 10:18:44;;;;;;;4.50;3.95;;;;;;;;;;2043818;29;20028;-95
2023/08/01 10:20:03;;;;;;;6.43;3.80;;;;;;;;;;2045989;29;20032;-96
2023/08/01 12:09:39;;;;;;;6.30;5.50;;;;;;;;;;2383590;23;20018;-96
2023/08/01 12:10:45;;;;;;;5.03;4.63;;;;;;;;;;2048202;29;20550;-96
2023/08/01 12:11:46;;;;;;;6.80;4.72;;;;;;;;;;2048685;29;20059;-95
2023/08/01 12:12:49;;;;;;;7.45;5.10;;;;;;;;;;2042811;29;20486;-95
2023/08/01 12:14:11;;;;;;;5.72;5.20;;;;;;;;;;1703515;29;10001885;-95
2023/08/01 12:15:15;;;;;;;5.75;5.20;;;;;;;;;;2041168;29;20708;-96
2023/08/01 12:16:19;;;;;;;5.30;4.80;;;;;;;;;;2042525;29;20046;-95
2023/08/01 12:17:33;;;;;;;5.53;5.03;;;;;;;;;;2035032;29;20108;-95
2023/08/01 12:18:34;;;;;;;5.55;5.00;;;;;;;;;;1699828;29;10002677;-95
2023/08/01 12:19:34;;;;;;;5.88;4.90;;;;;;;;;;2033539;29;20462;-95
2023/08/01 12:20:35;;;;;;;5.15;4.65;;;;;;;;;;2033207;29;20119;-96
2023/08/01 12:21:35;;;;;;;5.13;4.63;;;;;;;;;;2033197;29;20489;-96
2023/08/01 12:22:36;;;;;;;5.30;4.90;;;;;;;;;;2033194;29;20032;-96
2023/08/01 12:23:36;;;;;;;6.03;4.70;;;;;;;;;;2033281;29;20542;-96
2023/08/01 12:24:37;;;;;;;5.35;4.88;;;;;;;;;;2033144;29;20056;-96
2023/08/01 12:25:38;;;;;;;5.53;4.78;;;;;;;;;;2033124;29;20024;-96
2023/08/01 12:26:38;;;;;;;5.25;4.85;;;;;;;;;;2032737;29;20094;-95
2023/08/01 12:27:39;;;;;;;7.18;4.97;;;;;;;;;;2032832;29;20040;-95
2023/08/01 12:28:40;;;;;;;7.10;5.57;;;;;;;;;;2040931;29;20560;-96
2023/08/01 12:29:40;;;;;;;6.35;5.75;;;;;;;;;;2041188;29;20035;-95
2023/08/01 12:30:44;;;;;;;6.88;5.45;;;;;;;;;;2041052;29;20031;-94
2023/08/01 12:31:45;;;;;;;7.35;6.63;;;;;;;;;;2041353;29;20039;-96
2023/08/01 12:32:46;;;;;;;7.22;6.53;;;;;;;;;;2033666;29;20036;-95
2023/08/01 12:33:50;;;;;;;6.70;6.10;;;;;;;;;;2041759;29;20028;-96
2023/08/01 12:34:51;;;;;;;6.03;5.35;;;;;;;;;;2041174;29;20031;-96
2023/08/01 12:37:14;;;;;;;6.72;6.15;;;;;;;;;;2034494;29;20075;-96
2023/08/01 12:38:22;;;;;;;8.07;7.18;;;;;;;;;;2040492;29;20032;-96
2023/08/01 12:39:25;;;;;;;7.03;6.03;;;;;;;;;;2034213;29;20404;-96
2023/08/01 12:40:46;;;;;;;7.55;5.53;;;;;;;;;;2041926;29;20115;-96
2023/08/01 12:41:57;;;;;;;6.30;5.70;;;;;;;;;;2038173;29;20031;-96
2023/08/01 12:43:26;;;;;;;8.52;5.50;;;;;;;;;;2041977;29;20532;-96
2023/08/01 12:44:42;;;;;;;;;;;;;;;;;;;;;
2023/08/01 12:46:01;;;;;;;10.10;5.80;;;;;;;;;;2045984;29;20031;-96
2023/08/01 12:47:12;;;;;;;;;;;;;;;;;;;;;
2023/08/01 12:48:23;;;;;;;6.18;5.30;;;;;;;;;;2041200;29;20038;-96
2023/08/01 12:49:34;;;;;;;;;;;;;;;;;;;;;
2023/08/01 12:50:53;;;;;;;;;;;;;;;;;;;;;
2023/08/01 12:51:57;;;;;;;6.70;6.10;;;;;;;;;;2042511;28;19929;-96
2023/08/01 12:53:06;;;;;;;6.32;5.82;;;;;;;;;;2042420;29;20488;-96
2023/08/01 12:54:12;;;;;;;6.78;6.00;;;;;;;;;;2033889;29;20040;-96
2023/08/01 12:55:12;;;;;;;7.03;6.32;;;;;;;;;;2039539;29;20475;-96
2023/08/01 12:56:21;;;;;;;6.57;5.97;;;;;;;;;;2041105;29;20089;-96
2023/08/01 12:57:22;;;;;;;22.27;8.25;;;;;;;;;;2034442;29;20076;-95
2023/08/01 12:58:23;;;;;;;6.47;5.80;;;;;;;;;;2040984;29;20031;-96
2023/08/01 12:59:35;;;;;;;7.20;6.50;;;;;;;;;;2041214;29;20038;-96
2023/08/01 13:00:35;;;;;;;7.28;5.53;;;;;;;;;;2035949;29;20080;-96
2023/08/01 13:01:46;;;;;;;7.10;6.45;;;;;;;;;;2033457;29;20508;-96
2023/08/01 13:02:48;;;;;;;6.20;5.60;;;;;;;;;;2041479;29;20031;-96
2023/08/01 13:04:14;;;;;;;7.30;6.55;;;;;;;;;;2041405;29;20048;-96
2023/08/01 13:05:14;;;;;;;7.03;6.20;;;;;;;;;;2044541;29;20069;-95
2023/08/01 13:06:17;;;;;;;7.18;6.47;;;;;;;;;;2041252;29;20027;-96
2023/08/01 13:07:34;;;;;;;7.47;6.68;;;;;;;;;;2033994;29;20440;-96
2023/08/01 13:09:03;;;;;;;6.35;5.75;;;;;;;;;;2038172;29;20074;-95
2023/08/01 13:09:57;;;;;;;;;;;;;;;;;;2039759;29;20051;-96
2023/08/01 13:11:26;;;;;;;6.72;6.13;;;;;;;;;;2038142;29;19911;-96
2023/08/01 13:16:28;;;;;;;6.72;6.13;;;;;;;;;;2051522;28;20039;-96
2023/08/01 13:17:31;;;;;;;6.70;6.10;;;;;;;;;;2039252;29;20040;-95
2023/08/01 13:18:44;;;;;;;;;;;;;;;;;;;;;
2023/08/01 13:19:52;;;;;;;6.88;6.18;;;;;;;;;;2029451;29;20115;-96
2023/08/01 13:20:59;;;;;;;7.38;6.72;;;;;;;;;;2028309;29;20552;-96
2023/08/01 13:22:07;;;;;;;7.22;6.55;;;;;;;;;;2027298;29;20029;-96
2023/08/01 13:23:08;;;;;;;7.03;6.40;;;;;;;;;;2035297;29;20031;-96
2023/08/01 13:24:08;;;;;;;6.85;6.20;;;;;;;;;;2034165;29;20039;-96
2023/08/01 13:25:12;;;;;;;6.38;5.70;;;;;;;;;;2034628;29;20047;-96
2023/08/01 13:26:13;;;;;;;9.50;6.22;;;;;;;;;;2034121;29;20039;-96
2023/08/01 13:27:37;;;;;;;7.10;6.10;;;;;;;;;;2033979;29;20555;-96
2023/08/01 13:28:44;;;;;;;6.97;6.28;;;;;;;;;;2028759;29;20068;-96
2023/08/01 13:29:50;;;;;;;7.28;6.57;;;;;;;;;;2035128;29;20079;-96
2023/08/01 13:30:53;;;;;;;6.90;6.20;;;;;;;;;;2038425;29;20032;-96
2023/08/01 13:31:57;;;;;;;7.07;6.38;;;;;;;;;;2041340;29;20024;-93
2023/08/01 13:33:12;;;;;;;6.95;6.35;;;;;;;;;;2035036;29;20496;-96
2023/08/01 13:34:24;;;;;;;7.18;6.47;;;;;;;;;;2028656;29;20032;-96
2023/08/01 13:35:27;;;;;;;6.97;6.28;;;;;;;;;;2028576;29;20457;-96
2023/08/01 21:52:00;;;;;;;10.75;9.20;;;;;;;;;;2428297;23;20235;-95
2023/08/01 21:53:00;;;;;;;9.85;8.90;;;;;;;;;;2023370;29;20142;-95
2023/08/01 21:54:05;;;;;;;10.20;9.20;;;;;;;;;;2025977;29;20060;-95
2023/08/01 21:55:09;;;;;;;10.60;9.13;;;;;;;;;;2034958;29;20032;-96
2023/08/01 21:56:19;;;;;;;11.13;9.20;;;;;;;;;;2025999;29;20051;-96
2023/08/01 21:57:22;;;;;;;12.70;8.90;;;;;;;;;;2028531;29;20449;-93
2023/08/01 21:58:43;;;;;;;10.00;8.95;;;;;;;;;;2033763;29;20060;-96
2023/08/01 21:59:51;;;;;;;9.90;8.88;;;;;;;;;;2026062;29;20122;-95
2023/08/01 22:01:03;;;;;;;9.93;8.93;;;;;;;;;;2027263;29;20503;-96
2023/08/01 22:02:04;;;;;;;9.80;8.80;;;;;;;;;;2027467;29;20288;-95
2023/08/01 22:03:04;;;;;;;9.77;8.75;;;;;;;;;;2020052;29;20101;-94
2023/08/01 22:04:05;;;;;;;10.07;8.32;;;;;;;;;;2026735;29;20032;-95
2023/08/01 22:05:09;;;;;;;10.60;9.50;;;;;;;;;;2026418;29;20054;-95
2023/08/01 22:06:24;;;;;;;;;;;;;;;;;;;;;
2023/08/01 22:07:25;;;;;;;9.65;8.65;;;;;;;;;;2028324;29;20362;-95
2023/08/01 22:08:43;;;;;;;9.57;8.57;;;;;;;;;;2034592;29;20016;-95
2023/08/01 22:10:12;;;;;;;;;;;;;;;;;;;;;
2023/08/01 22:11:17;;;;;;;10.30;8.82;;;;;;;;;;2027277;29;20107;-95
2023/08/01 22:12:18;;;;;;;9.73;8.45;;;;;;;;;;2027571;29;20107;-95
2023/08/01 22:13:21;;;;;;;10.00;9.00;;;;;;;;;;2027171;29;20036;-95
2023/08/01 22:14:24;;;;;;;9.82;8.68;;;;;;;;;;2026263;29;20388;-95
2023/08/01 22:15:26;;;;;;;9.40;8.43;;;;;;;;;;2025719;29;20040;-96
2023/08/01 22:16:30;;;;;;;12.38;8.15;;;;;;;;;;1685760;29;10239507;-96
2023/08/01 22:17:39;;;;;;;9.27;8.13;;;;;;;;;;2027106;29;20023;-96
2023/08/01 22:18:42;;;;;;;9.10;8.20;;;;;;;;;;2027385;29;20040;-96
2023/08/01 22:19:56;;;;;;;9.68;8.68;;;;;;;;;;2034124;29;20028;-96
2023/08/01 22:21:14;;;;;;;8.90;8.00;;;;;;;;;;2019530;29;20222;-96
2023/08/01 22:22:26;;;;;;;11.60;8.70;;;;;;;;;;2018584;29;20037;-96
2023/08/01 22:23:29;;;;;;;9.73;8.32;;;;;;;;;;2029740;29;20028;-95
2023/08/01 22:24:35;;;;;;;9.95;8.60;;;;;;;;;;2027067;29;20036;-96
2023/08/01 22:25:55;;;;;;;9.30;8.00;;;;;;;;;;2027468;29;20029;-96
2023/08/01 22:27:08;;;;;;;10.23;8.17;;;;;;;;;;2018750;29;20044;-96
2023/08/01 22:28:15;;;;;;;10.02;8.07;;;;;;;;;;2022280;29;20343;-96
2023/08/01 22:29:18;;;;;;;8.95;7.90;;;;;;;;;;2026884;29;20048;-96
2023/08/01 23:01:30;;;;;;;8.98;6.80;;;;;;;;;;2118774;23;20048;-94
2023/08/01 23:02:31;;;;;;;8.93;7.10;;;;;;;;;;2034714;29;20084;-95
2023/08/01 23:03:35;;;;;;;8.40;7.50;;;;;;;;;;2028409;29;20049;-95
2023/08/01 23:04:40;;;;;;;7.88;6.82;;;;;;;;;;2034963;29;20048;-96
2023/08/01 23:05:40;;;;;;;8.10;7.30;;;;;;;;;;2027010;29;20035;-96
2023/08/01 23:06:41;;;;;;;7.57;6.60;;;;;;;;;;2028848;29;20105;-95
2023/08/01 23:07:41;;;;;;;8.82;7.07;;;;;;;;;;2035336;29;20028;-93
2023/08/01 23:08:42;;;;;;;9.57;6.68;;;;;;;;;;2034115;29;20531;-95
2023/08/01 23:09:43;;;;;;;8.48;6.65;;;;;;;;;;2035133;29;20095;-95
2023/08/01 23:10:44;;;;;;;7.05;6.35;;;;;;;;;;2026457;29;20029;-94
2023/08/01 23:11:47;;;;;;;9.40;6.70;;;;;;;;;;2026444;29;20389;-95
2023/08/01 23:13:03;;;;;;;8.80;7.07;;;;;;;;;;2021721;29;20143;-96
2023/08/01 23:14:05;;;;;;;6.88;6.18;;;;;;;;;;1690747;29;10003739;-95
2023/08/01 23:15:06;;;;;;;8.52;6.50;;;;;;;;;;2026866;29;20021;-95
2023/08/01 23:16:07;;;;;;;7.72;6.93;;;;;;;;;;2026631;29;20507;-96
2023/08/01 23:17:09;;;;;;;6.88;6.18;;;;;;;;;;2026202;29;20107;-96
2023/08/01 23:18:10;;;;;;;9.35;5.85;;;;;;;;;;2027161;29;20024;-96
2023/08/01 23:19:13;;;;;;;7.72;6.18;;;;;;;;;;2034861;29;20028;-96
2023/08/01 23:20:13;;;;;;;8.80;6.03;;;;;;;;;;2033735;29;20429;-96
2023/08/01 23:21:16;;;;;;;8.40;6.78;;;;;;;;;;2027288;29;20063;-96
2023/08/01 23:22:22;;;;;;;7.82;6.20;;;;;;;;;;2034832;29;20115;-96
2023/08/01 23:23:25;;;;;;;8.65;6.63;;;;;;;;;;2034235;29;20020;-95
2023/08/01 23:24:33;;;;;;;7.45;6.20;;;;;;;;;;2035092;29;20142;-96
2023/08/01 23:25:36;;;;;;;7.13;5.95;;;;;;;;;;2031344;29;20036;-96
2023/08/01 23:26:39;;;;;;;6.55;5.75;;;;;;;;;;2028138;29;20449;-96
2023/08/01 23:27:42;;;;;;;8.02;6.82;;;;;;;;;;2028264;29;20029;-96
2023/08/01 23:28:50;;;;;;;6.97;6.25;;;;;;;;;;2026787;29;20028;-96
